Terminal Aerodrome Forecast
Issued by NWS Sioux Falls, SD

Home | Current Version | Previous Version | Graphics & Text | Print | Product List | Glossary On
Versions: 1 2 3 4 5 6 7 8 9 10 11 12 13 14 15
649
FTUS43 KFSD 202320
TAFHON
TAF
KHON 202320Z 2100/2124 02006KT P6SM BKN120
     FM210700 02009KT P6SM OVC070
     FM212200 05010KT P6SM BKN070=

USA.gov is the U.S. government's official web portal to all federal, state and local government web resources and services.